ADJ weather

Amman-Marka International Airport
Amman, Amman Governorate, Jordan

Public forecast

Using degrees Celsius for public forecast. Weather courtesy of forecast.io.

METAR (pilot weather report)

Retrieved 2019/05/23 12:00 UTC (32 minutes ago):

OJAM 231200Z 01106KT 4000 DU NSC 38/01 Q1017 NOSIG

TAF (pilot weather forecast)

Retrieved 2019/05/23 12:15 UTC (17 minutes ago):

TAF OJAM 231017Z 2312/2418 23006KT 4000 HZ NSC BECMG 2318/2320 6000 PROB40 2402/2406 3000 FU BECMG 2406/2408 26012KT 5000 HZ NSC TEMPO 2411/2417 4000 DU